Wetterstation Vordersexau
Wetterdaten: Woche 18.04.11 - 24.04.11 (KW16)
Datum Zeit Temp. A. Feuchte A. Luftdruck Regen Wind Richtung Taupunkt Windchill Windben
18.04.2011 00:00 7,6 C 65 % 1019,3 hPa 0,0 l/m 0,0 km/h N-NO 1,5 C 7,6 C 0,0 km/h
18.04.2011 01:00 6,2 C 68 % 1019,1 hPa 0,0 l/m 0,0 km/h NO 0,7 C 6,2 C 0,0 km/h
18.04.2011 02:00 5,9 C 70 % 1018,8 hPa 0,0 l/m 0,0 km/h W 0,9 C 5,9 C 0,0 km/h
18.04.2011 03:00 4,3 C 74 % 1019,0 hPa 0,0 l/m 0,0 km/h W-SW 0,1 C 4,3 C 0,0 km/h
18.04.2011 04:00 1,9 C 80 % 1019,1 hPa 0,0 l/m 0,0 km/h O-NO -1,2 C 1,9 C 0,0 km/h
18.04.2011 05:00 2,6 C 81 % 1019,1 hPa 0,0 l/m 0,0 km/h O-NO -0,3 C 2,6 C 0,0 km/h
18.04.2011 06:00 1,8 C 82 % 1019,4 hPa 0,0 l/m 0,0 km/h O-NO -0,9 C 1,8 C 0,0 km/h
18.04.2011 07:00 3,1 C 83 % 1019,5 hPa 0,0 l/m 0,0 km/h S-SO 0,5 C 3,1 C 0,0 km/h
18.04.2011 08:00 10,3 C 70 % 1019,4 hPa 0,0 l/m 0,0 km/h N 5,1 C 10,3 C 0,0 km/h
18.04.2011 09:00 15,3 C 51 % 1019,5 hPa 0,0 l/m 0,0 km/h S-SO 5,2 C 15,3 C 0,0 km/h
18.04.2011 10:00 18,4 C 44 % 1019,5 hPa 0,0 l/m 0,0 km/h N-NO 5,9 C 18,4 C 0,0 km/h
18.04.2011 11:00 21,5 C 36 % 1019,1 hPa 0,0 l/m 0,0 km/h W 5,8 C 21,5 C 0,0 km/h
18.04.2011 12:00 22,6 C 35 % 1018,2 hPa 0,0 l/m 4,5 km/h N-NO 6,4 C 22,6 C 2,5 km/h
18.04.2011 13:00 22,9 C 34 % 1017,3 hPa 0,0 l/m 0,0 km/h S-SW 6,2 C 22,9 C 0,0 km/h
18.04.2011 14:00 23,3 C 32 % 1016,7 hPa 0,0 l/m 0,0 km/h S-SW 5,7 C 23,3 C 0,0 km/h
18.04.2011 15:00 26,7 C 24 % 1016,0 hPa 0,0 l/m 0,0 km/h W-NW 4,4 C 26,7 C 0,0 km/h
18.04.2011 16:00 30,6 C 21 % 1015,1 hPa 0,0 l/m 0,0 km/h NW 5,8 C 30,6 C 0,0 km/h
18.04.2011 17:00 30,2 C 20 % 1014,2 hPa 0,0 l/m 5,2 km/h W 4,7 C 30,2 C 2,9 km/h
18.04.2011 18:00 28,4 C 21 % 1013,8 hPa 0,0 l/m 1,9 km/h N-NW 4,0 C 28,4 C 1,1 km/h
18.04.2011 19:00 24,6 C 27 % 1013,9 hPa 0,0 l/m 1,9 km/h SO 4,4 C 24,6 C 1,1 km/h
18.04.2011 20:00 15,0 C 49 % 1014,0 hPa 0,0 l/m 0,0 km/h O-SO 4,4 C 15,0 C 0,0 km/h
18.04.2011 21:00 11,6 C 56 % 1014,3 hPa 0,0 l/m 0,0 km/h NO 3,1 C 11,6 C 0,0 km/h
18.04.2011 22:00 9,9 C 64 % 1014,4 hPa 0,0 l/m 0,0 km/h NO 3,4 C 9,9 C 0,0 km/h
18.04.2011 23:00 8,9 C 68 % 1014,3 hPa 0,0 l/m 0,0 km/h O-NO 3,3 C 8,9 C 0,0 km/h
19.04.2011 00:00 8,5 C 68 % 1014,4 hPa 0,0 l/m 0,0 km/h NO 2,9 C 8,5 C 0,0 km/h
19.04.2011 01:00 7,4 C 72 % 1014,3 hPa 0,0 l/m 0,0 km/h O-NO 2,7 C 7,4 C 0,0 km/h
19.04.2011 02:00 7,4 C 71 % 1014,1 hPa 0,0 l/m 0,0 km/h O-NO 2,5 C 7,4 C 0,0 km/h
19.04.2011 03:00 5,3 C 78 % 1013,7 hPa 0,0 l/m 0,0 km/h O-NO 1,8 C 5,3 C 0,0 km/h
19.04.2011 04:00 4,4 C 81 % 1014,0 hPa 0,0 l/m 0,0 km/h NO 1,4 C 4,4 C 0,0 km/h
19.04.2011 05:00 3,9 C 82 % 1013,9 hPa 0,0 l/m 0,0 km/h O-NO 1,1 C 3,9 C 0,0 km/h
19.04.2011 06:00 4,1 C 83 % 1014,0 hPa 0,0 l/m 0,0 km/h O-NO 1,5 C 4,1 C 0,0 km/h
19.04.2011 07:00 4,4 C 84 % 1014,2 hPa 0,0 l/m 0,0 km/h O-NO 1,9 C 4,4 C 0,0 km/h
19.04.2011 08:00 11,4 C 76 % 1014,7 hPa 0,0 l/m 0,0 km/h W-NW 7,3 C 11,4 C 0,0 km/h
19.04.2011 09:00 17,3 C 52 % 1014,8 hPa 0,0 l/m 0,0 km/h N-NO 7,3 C 17,3 C 0,0 km/h
19.04.2011 10:00 19,9 C 46 % 1014,8 hPa 0,0 l/m 1,3 km/h W 7,9 C 19,9 C 0,7 km/h
19.04.2011 11:00 23,1 C 39 % 1014,8 hPa 0,0 l/m 0,0 km/h W 8,4 C 23,1 C 0,0 km/h
19.04.2011 12:00 23,3 C 36 % 1014,2 hPa 0,0 l/m 0,0 km/h NW 7,4 C 23,3 C 0,0 km/h
19.04.2011 13:00 23,9 C 34 % 1013,5 hPa 0,0 l/m 0,0 km/h W-NW 7,1 C 23,9 C 0,0 km/h
19.04.2011 14:00 24,9 C 31 % 1012,6 hPa 0,0 l/m 20,1 km/h W 6,6 C 22,5 C 11,2 km/h
19.04.2011 15:00 28,3 C 27 % 1012,1 hPa 0,0 l/m 9,7 km/h N 7,5 C 27,8 C 5,4 km/h
19.04.2011 16:00 28,8 C 26 % 1011,8 hPa 0,0 l/m 3,2 km/h N-NW 7,4 C 28,8 C 1,8 km/h
19.04.2011 17:00 29,8 C 23 % 1011,2 hPa 0,0 l/m 1,9 km/h N 6,4 C 29,8 C 1,1 km/h
19.04.2011 18:00 27,2 C 26 % 1011,2 hPa 0,0 l/m 0,0 km/h NO 6,0 C 27,2 C 0,0 km/h
19.04.2011 19:00 23,6 C 30 % 1011,1 hPa 0,0 l/m 5,8 km/h N-NO 5,0 C 23,6 C 3,2 km/h
19.04.2011 20:00 15,4 C 50 % 1011,4 hPa 0,0 l/m 0,0 km/h NO 5,0 C 15,4 C 0,0 km/h
19.04.2011 21:00 12,2 C 59 % 1012,1 hPa 0,0 l/m 0,0 km/h O-SO 4,4 C 12,2 C 0,0 km/h
19.04.2011 22:00 10,9 C 65 % 1012,4 hPa 0,0 l/m 0,0 km/h S-SO 4,6 C 10,9 C 0,0 km/h
19.04.2011 23:00 9,8 C 71 % 1012,7 hPa 0,0 l/m 4,5 km/h SO 4,8 C 9,8 C 2,5 km/h
20.04.2011 00:00 10,4 C 66 % 1012,8 hPa 0,0 l/m 0,0 km/h SO 4,3 C 10,4 C 0,0 km/h
20.04.2011 01:00 9,6 C 68 % 1012,6 hPa 0,0 l/m 4,5 km/h O-SO 4,0 C 9,6 C 2,5 km/h
20.04.2011 02:00 8,6 C 68 % 1012,8 hPa 0,0 l/m 0,0 km/h O-SO 3,0 C 8,6 C 0,0 km/h
20.04.2011 03:00 6,1 C 76 % 1013,0 hPa 0,0 l/m 0,0 km/h NO 2,2 C 6,1 C 0,0 km/h
20.04.2011 04:00 5,6 C 78 % 1013,2 hPa 0,0 l/m 0,0 km/h NO 2,1 C 5,6 C 0,0 km/h
20.04.2011 05:00 5,3 C 80 % 1013,3 hPa 0,0 l/m 0,0 km/h NO 2,1 C 5,3 C 0,0 km/h
20.04.2011 06:00 4,9 C 82 % 1013,5 hPa 0,0 l/m 0,0 km/h NO 2,1 C 4,9 C 0,0 km/h
20.04.2011 07:00 5,9 C 82 % 1013,9 hPa 0,0 l/m 0,0 km/h O-SO 3,1 C 5,9 C 0,0 km/h
20.04.2011 08:00 12,1 C 74 % 1014,0 hPa 0,0 l/m 0,0 km/h NO 7,6 C 12,1 C 0,0 km/h
20.04.2011 09:00 17,3 C 54 % 1014,5 hPa 0,0 l/m 0,0 km/h W-SW 7,9 C 17,3 C 0,0 km/h
20.04.2011 10:00 20,3 C 44 % 1014,5 hPa 0,0 l/m 0,6 km/h W-SW 7,6 C 20,3 C 0,4 km/h
20.04.2011 11:00 22,4 C 41 % 1014,4 hPa 0,0 l/m 5,8 km/h NW 8,5 C 22,4 C 3,2 km/h
20.04.2011 12:00 23,6 C 38 % 1014,3 hPa 0,0 l/m 0,6 km/h W-SW 8,4 C 23,6 C 0,4 km/h
20.04.2011 13:00 24,8 C 35 % 1013,6 hPa 0,0 l/m 0,0 km/h S-SW 8,3 C 24,8 C 0,0 km/h
20.04.2011 14:00 25,8 C 35 % 1013,3 hPa 0,0 l/m 3,2 km/h W-NW 9,2 C 25,8 C 1,8 km/h
20.04.2011 15:00 28,3 C 28 % 1012,5 hPa 0,0 l/m 0,0 km/h W-NW 8,0 C 28,3 C 0,0 km/h
20.04.2011 16:00 30,3 C 25 % 1012,1 hPa 0,0 l/m 15,6 km/h W-NW 8,1 C 29,7 C 8,6 km/h
20.04.2011 17:00 28,6 C 26 % 1011,9 hPa 0,0 l/m 1,3 km/h N 7,2 C 28,6 C 0,7 km/h
20.04.2011 18:00 24,5 C 31 % 1012,1 hPa 0,0 l/m 0,0 km/h O-SO 6,3 C 24,5 C 0,0 km/h
20.04.2011 19:00 21,8 C 42 % 1012,1 hPa 0,0 l/m 0,0 km/h O-SO 8,3 C 21,8 C 0,0 km/h
20.04.2011 20:00 16,5 C 53 % 1012,3 hPa 0,0 l/m 0,0 km/h SO 6,9 C 16,5 C 0,0 km/h
20.04.2011 21:00 12,7 C 64 % 1012,8 hPa 0,0 l/m 0,0 km/h O-NO 6,1 C 12,7 C 0,0 km/h
20.04.2011 22:00 12,5 C 66 % 1013,1 hPa 0,0 l/m 0,0 km/h O-NO 6,3 C 12,5 C 0,0 km/h
20.04.2011 23:00 10,5 C 71 % 1013,1 hPa 0,0 l/m 0,0 km/h O-SO 5,5 C 10,5 C 0,0 km/h
21.04.2011 00:00 10,4 C 72 % 1013,6 hPa 0,0 l/m 0,0 km/h NO 5,6 C 10,4 C 0,0 km/h
21.04.2011 01:00 9,2 C 75 % 1013,8 hPa 0,0 l/m 0,0 km/h O-NO 5,0 C 9,2 C 0,0 km/h
21.04.2011 02:00 8,3 C 78 % 1013,8 hPa 0,0 l/m 0,0 km/h O-NO 4,7 C 8,3 C 0,0 km/h
21.04.2011 03:00 7,8 C 79 % 1014,1 hPa 0,0 l/m 0,0 km/h O-NO 4,4 C 7,8 C 0,0 km/h
21.04.2011 04:00 6,5 C 83 % 1014,5 hPa 0,0 l/m 0,0 km/h SO 3,8 C 6,5 C 0,0 km/h
21.04.2011 05:00 6,5 C 84 % 1014,5 hPa 0,0 l/m 0,6 km/h SO 4,0 C 6,5 C 0,4 km/h
21.04.2011 06:00 6,5 C 84 % 1014,7 hPa 0,0 l/m 0,0 km/h SO 4,0 C 6,5 C 0,0 km/h
21.04.2011 07:00 7,4 C 84 % 1014,9 hPa 0,0 l/m 0,0 km/h O 4,9 C 7,4 C 0,0 km/h
21.04.2011 08:00 13,4 C 76 % 1015,0 hPa 0,0 l/m 0,0 km/h S-SO 9,3 C 13,4 C 0,0 km/h
21.04.2011 09:00 19,5 C 55 % 1014,8 hPa 0,0 l/m 3,9 km/h W 10,2 C 19,5 C 2,2 km/h
21.04.2011 10:00 25,2 C 39 % 1014,5 hPa 0,0 l/m 0,0 km/h SW 10,2 C 25,2 C 0,0 km/h
21.04.2011 11:00 24,8 C 36 % 1014,2 hPa 0,0 l/m 9,1 km/h N-NO 8,7 C 24,1 C 5,0 km/h
21.04.2011 12:00 25,8 C 35 % 1013,5 hPa 0,0 l/m 0,0 km/h SW 9,2 C 25,8 C 0,0 km/h
21.04.2011 13:00 25,7 C 37 % 1013,1 hPa 0,0 l/m 7,8 km/h S-SW 9,9 C 25,4 C 4,3 km/h
21.04.2011 14:00 26,9 C 36 % 1012,4 hPa 0,0 l/m 5,8 km/h W 10,6 C 26,9 C 3,2 km/h
21.04.2011 15:00 29,9 C 30 % 1011,8 hPa 0,0 l/m 3,9 km/h W-SW 10,4 C 29,9 C 2,2 km/h
21.04.2011 16:00 30,1 C 30 % 1010,9 hPa 0,0 l/m 0,0 km/h W-SW 10,6 C 30,1 C 0,0 km/h
21.04.2011 17:00 28,2 C 31 % 1010,3 hPa 0,0 l/m 1,3 km/h W 9,4 C 28,2 C 0,7 km/h
21.04.2011 18:00 28,6 C 31 % 1009,8 hPa 0,0 l/m 1,3 km/h W 9,8 C 28,6 C 0,7 km/h
21.04.2011 19:00 24,1 C 43 % 1009,6 hPa 0,0 l/m 0,0 km/h NO 10,7 C 24,1 C 0,0 km/h
21.04.2011 20:00 17,2 C 59 % 1009,7 hPa 0,0 l/m 0,0 km/h O-SO 9,1 C 17,2 C 0,0 km/h
21.04.2011 21:00 14,5 C 64 % 1010,1 hPa 0,0 l/m 0,0 km/h NO 7,8 C 14,5 C 0,0 km/h
21.04.2011 22:00 12,8 C 69 % 1010,1 hPa 0,0 l/m 0,0 km/h O 7,3 C 12,8 C 0,0 km/h
21.04.2011 23:00 12,4 C 68 % 1010,3 hPa 0,0 l/m 0,0 km/h SO 6,7 C 12,4 C 0,0 km/h
22.04.2011 00:00 11,6 C 68 % 1010,1 hPa 0,0 l/m 0,0 km/h N-NO 5,9 C 11,6 C 0,0 km/h
22.04.2011 01:00 10,8 C 72 % 1009,7 hPa 0,0 l/m 0,0 km/h W-SW 6,0 C 10,8 C 0,0 km/h
22.04.2011 02:00 9,4 C 75 % 1009,6 hPa 0,0 l/m 0,0 km/h NO 5,2 C 9,4 C 0,0 km/h
22.04.2011 03:00 8,4 C 79 % 1009,4 hPa 0,0 l/m 0,0 km/h SO 5,0 C 8,4 C 0,0 km/h
22.04.2011 04:00 7,5 C 81 % 1009,3 hPa 0,0 l/m 0,0 km/h NO 4,5 C 7,5 C 0,0 km/h
22.04.2011 05:00 7,2 C 82 % 1009,2 hPa 0,0 l/m 0,0 km/h O-SO 4,3 C 7,2 C 0,0 km/h
22.04.2011 06:00 6,7 C 83 % 1009,6 hPa 0,0 l/m 0,0 km/h NO 4,0 C 6,7 C 0,0 km/h
22.04.2011 07:00 8,4 C 82 % 1010,0 hPa 0,0 l/m 0,0 km/h O-SO 5,5 C 8,4 C 0,0 km/h
22.04.2011 08:00 11,6 C 78 % 1010,0 hPa 0,0 l/m 0,0 km/h W 7,9 C 11,6 C 0,0 km/h
22.04.2011 09:00 18,7 C 61 % 1009,6 hPa 0,0 l/m 0,0 km/h N 11,0 C 18,7 C 0,0 km/h
22.04.2011 10:00 23,2 C 44 % 1009,3 hPa 0,0 l/m 0,0 km/h W-SW 10,3 C 23,2 C 0,0 km/h
22.04.2011 11:00 24,8 C 39 % 1008,8 hPa 0,0 l/m 7,8 km/h NW 9,9 C 24,4 C 4,3 km/h
22.04.2011 12:00 25,4 C 37 % 1008,2 hPa 0,0 l/m 0,0 km/h S 9,6 C 25,4 C 0,0 km/h
22.04.2011 13:00 25,5 C 37 % 1007,3 hPa 0,0 l/m 6,5 km/h W-SW 9,7 C 25,5 C 3,6 km/h
22.04.2011 14:00 26,2 C 37 % 1006,8 hPa 0,0 l/m 19,4 km/h N-NO 10,3 C 24,3 C 10,8 km/h
22.04.2011 15:00 30,1 C 29 % 1006,0 hPa 0,0 l/m 0,0 km/h SW 10,1 C 30,1 C 0,0 km/h
22.04.2011 16:00 31,3 C 26 % 1005,4 hPa 0,0 l/m 12,3 km/h W-SW 9,5 C 31,0 C 6,8 km/h
22.04.2011 17:00 31,6 C 27 % 1005,3 hPa 0,0 l/m 2,6 km/h N-NW 10,3 C 31,6 C 1,4 km/h
22.04.2011 18:00 30,4 C 27 % 1005,3 hPa 0,0 l/m 0,0 km/h W-NW 9,3 C 30,4 C 0,0 km/h
22.04.2011 19:00 26,3 C 36 % 1005,3 hPa 0,0 l/m 0,0 km/h O-NO 10,0 C 26,3 C 0,0 km/h
22.04.2011 20:00 17,8 C 56 % 1005,8 hPa 0,0 l/m 0,0 km/h SO 8,9 C 17,8 C 0,0 km/h
22.04.2011 21:00 14,5 C 64 % 1006,5 hPa 0,0 l/m 0,0 km/h O-SO 7,8 C 14,5 C 0,0 km/h
22.04.2011 22:00 12,8 C 70 % 1006,6 hPa 0,0 l/m 0,0 km/h NO 7,5 C 12,8 C 0,0 km/h
22.04.2011 23:00 11,8 C 73 % 1006,3 hPa 0,0 l/m 0,0 km/h SW 7,1 C 11,8 C 0,0 km/h
23.04.2011 00:00 11,9 C 75 % 1006,6 hPa 0,0 l/m 0,0 km/h O-NO 7,6 C 11,9 C 0,0 km/h
23.04.2011 01:00 11,2 C 75 % 1006,9 hPa 0,0 l/m 0,0 km/h SW 6,9 C 11,2 C 0,0 km/h
23.04.2011 02:00 10,4 C 77 % 1006,9 hPa 0,0 l/m 0,0 km/h S-SO 6,5 C 10,4 C 0,0 km/h
23.04.2011 03:00 9,2 C 77 % 1006,9 hPa 0,0 l/m 0,0 km/h O-NO 5,4 C 9,2 C 0,0 km/h
23.04.2011 04:00 8,1 C 80 % 1007,3 hPa 0,0 l/m 0,0 km/h O-SO 4,9 C 8,1 C 0,0 km/h
23.04.2011 05:00 7,3 C 81 % 1007,6 hPa 0,0 l/m 0,0 km/h SO 4,3 C 7,3 C 0,0 km/h
23.04.2011 06:00 7,3 C 81 % 1007,8 hPa 0,0 l/m 0,0 km/h S-SO 4,3 C 7,3 C 0,0 km/h
23.04.2011 07:00 8,8 C 79 % 1008,2 hPa 0,0 l/m 0,0 km/h O-NO 5,4 C 8,8 C 0,0 km/h
23.04.2011 08:00 12,6 C 72 % 1008,5 hPa 0,0 l/m 0,0 km/h SO 7,7 C 12,6 C 0,0 km/h
23.04.2011 09:00 17,4 C 57 % 1008,4 hPa 0,0 l/m 0,0 km/h W 8,8 C 17,4 C 0,0 km/h
23.04.2011 10:00 19,5 C 52 % 1008,8 hPa 0,0 l/m 3,9 km/h W-NW 9,4 C 19,5 C 2,2 km/h
23.04.2011 11:00 23,8 C 41 % 1009,0 hPa 0,0 l/m 7,8 km/h S 9,7 C 23,4 C 4,3 km/h
23.04.2011 12:00 24,8 C 36 % 1008,4 hPa 0,0 l/m 3,2 km/h S-SW 8,7 C 24,8 C 1,8 km/h
23.04.2011 13:00 26,1 C 35 % 1008,1 hPa 0,0 l/m 9,1 km/h W-NW 9,4 C 25,5 C 5,0 km/h
23.04.2011 14:00 27,8 C 32 % 1007,8 hPa 0,0 l/m 0,0 km/h W 9,6 C 27,8 C 0,0 km/h
23.04.2011 15:00 29,9 C 29 % 1007,3 hPa 0,0 l/m 3,9 km/h S-SW 9,9 C 29,9 C 2,2 km/h
23.04.2011 16:00 30,3 C 27 % 1007,2 hPa 0,0 l/m 5,2 km/h W 9,2 C 30,3 C 2,9 km/h
23.04.2011 17:00 27,6 C 30 % 1007,3 hPa 0,0 l/m 0,0 km/h SW 8,4 C 27,6 C 0,0 km/h
23.04.2011 18:00 25,6 C 37 % 1007,5 hPa 0,0 l/m 0,0 km/h NO 9,8 C 25,6 C 0,0 km/h
23.04.2011 19:00 21,8 C 39 % 1008,0 hPa 0,0 l/m 1,9 km/h SO 7,2 C 21,8 C 1,1 km/h
23.04.2011 20:00 17,9 C 54 % 1008,6 hPa 0,0 l/m 0,0 km/h S-SO 8,5 C 17,9 C 0,0 km/h
23.04.2011 21:00 15,9 C 66 % 1009,6 hPa 0,0 l/m 7,8 km/h O-NO 9,6 C 15,1 C 4,3 km/h
23.04.2011 22:00 15,1 C 69 % 1010,2 hPa 0,0 l/m 0,0 km/h NO 9,5 C 15,1 C 0,0 km/h
23.04.2011 23:00 13,1 C 77 % 1010,5 hPa 0,0 l/m 0,0 km/h SO 9,2 C 13,1 C 0,0 km/h
24.04.2011 00:00 11,8 C 79 % 1010,8 hPa 0,0 l/m 0,0 km/h O-SO 8,3 C 11,8 C 0,0 km/h
24.04.2011 01:00 10,7 C 82 % 1010,8 hPa 0,0 l/m 0,0 km/h SO 7,8 C 10,7 C 0,0 km/h
24.04.2011 02:00 10,6 C 83 % 1011,3 hPa 0,0 l/m 1,9 km/h O-NO 7,8 C 10,6 C 1,1 km/h
24.04.2011 03:00 11,3 C 82 % 1011,6 hPa 0,0 l/m 0,0 km/h O-NO 8,3 C 11,3 C 0,0 km/h
24.04.2011 04:00 11,6 C 81 % 1012,3 hPa 0,0 l/m 0,0 km/h O-NO 8,5 C 11,6 C 0,0 km/h
24.04.2011 05:00 11,6 C 82 % 1012,6 hPa 0,0 l/m 0,0 km/h SO 8,6 C 11,6 C 0,0 km/h
24.04.2011 06:00 11,4 C 83 % 1012,9 hPa 0,0 l/m 0,0 km/h SO 8,6 C 11,4 C 0,0 km/h
24.04.2011 07:00 12,2 C 82 % 1013,3 hPa 0,0 l/m 0,0 km/h SO 9,2 C 12,2 C 0,0 km/h
24.04.2011 08:00 17,3 C 76 % 1014,1 hPa 0,0 l/m 0,0 km/h W-SW 13,0 C 17,3 C 0,0 km/h
24.04.2011 09:00 18,8 C 61 % 1014,3 hPa 0,0 l/m 4,5 km/h W-SW 11,1 C 18,8 C 2,5 km/h
24.04.2011 10:00 19,6 C 58 % 1014,8 hPa 0,0 l/m 4,5 km/h SW 11,1 C 19,6 C 2,5 km/h
24.04.2011 11:00 22,2 C 53 % 1015,1 hPa 0,0 l/m 9,7 km/h W 12,2 C 21,2 C 5,4 km/h
24.04.2011 12:00 22,9 C 48 % 1014,5 hPa 0,0 l/m 15,6 km/h W 11,3 C 20,7 C 8,6 km/h
24.04.2011 13:00 24,9 C 44 % 1014,0 hPa 0,0 l/m 5,8 km/h N-NW 11,8 C 24,9 C 3,2 km/h
24.04.2011 14:00 26,0 C 40 % 1013,5 hPa 0,0 l/m 1,9 km/h W-SW 11,3 C 26,0 C 1,1 km/h
24.04.2011 15:00 24,2 C 44 % 1013,4 hPa 0,0 l/m 2,6 km/h SO 11,2 C 24,2 C 1,4 km/h
24.04.2011 16:00 23,1 C 47 % 1013,3 hPa 0,0 l/m 14,3 km/h N-NW 11,2 C 21,1 C 7,9 km/h
24.04.2011 17:00 17,3 C 66 % 1013,9 hPa 0,0 l/m 0,0 km/h N-NO 10,9 C 17,3 C 0,0 km/h
24.04.2011 18:00 15,3 C 76 % 1013,2 hPa 0,0 l/m 0,0 km/h O 11,1 C 15,3 C 0,0 km/h
24.04.2011 19:00 14,5 C 79 % 1013,7 hPa 0,0 l/m 0,0 km/h SO 10,9 C 14,5 C 0,0 km/h
24.04.2011 20:00 13,9 C 82 % 1014,0 hPa 0,0 l/m 0,0 km/h O-NO 10,9 C 13,9 C 0,0 km/h
24.04.2011 21:00 12,7 C 84 % 1014,7 hPa 0,0 l/m 0,0 km/h SO 10,1 C 12,7 C 0,0 km/h
24.04.2011 22:00 12,3 C 85 % 1014,6 hPa 0,0 l/m 0,0 km/h S-SO 9,9 C 12,3 C 0,0 km/h
24.04.2011 23:00 11,9 C 85 % 1014,8 hPa 0,0 l/m 9,7 km/h O 9,5 C 9,9 C 5,4 km/h
Min-Datum _ 18.04.11 18.04.11 22.04.11 - 18.04.11 - 18.04.11 18.04.11 18.04.11
_ Min-Zeit 06:30 17:30 17:30 - 00:30 - 04:30 06:30 00:30
Minimum _ 1,8 C 20 % 1005,3 hPa - 0,0 km/h - -1,2 C 1,8 C 0,0 km/h
Max-Datum _ 22.04.11 24.04.11 18.04.11 18.04.11 19.04.11 - 24.04.11 22.04.11 19.04.11
_ Max-Zeit 17:30 22:30 07:30 00:30 14:30 - 08:30 17:30 14:30
Maximum _ 31,6 C 85 % 1019,5 hPa 0,0 l/m 20,1 km/h
W
- 13,0 C 31,6 C 11,2 km/h
W
Durchschnitt _ 16,6 C 58 % 1012,2 hPa #0,0 l/m 1,7 km/h O-NO 6,9 C 16,5 C 0,9 km/h
www.sexauwetter.de